Raffaele Mariani

Scout - Parma
9 Jul 2028
Sunday
Process

Personality

Adaptability (12) Ambition (18) Controversy (10) Loyalty (18) Pressure (17) Professionalism (5) Sportsmanship (3) Temperament (14)

Profile

Coaching Style Democratic
License Continental Pro
Determination 4
Man Management 5
Motivating 5
Discipline 7
Job Satisfaction
84%
Fatigue
0%
Role Scout
Wage 27.8K p/w
Contract 14.03.2030

Performance

Behaviour Good
Training Effectiveness
30%
Player Development
45%
Injury Prevention
40%
Tactical Implementation
20%

Recent Events

Attended a recruitment meeting 7d ago
Presented a dossier to the board 7d ago
Assessed a player 7d ago
Attended a recruitment meeting 14d ago
Presented a dossier to the board 14d ago
Attended a recruitment meeting 21d ago
Presented a dossier to the board 21d ago
Presented a dossier to the board 28d ago

Currently Monitoring

80
Player Club Status Ability Confidence Watched Last Observed Latest Vote
Marto Boychev CSKA 1948 Active 101 / 128 40% 4 27.06.2028 -
Shumaira Mheuka Chelsea Active 120 / 139 40% 1 27.06.2028 -
Olivier Leroux Mouscron Active 99 / 101 40% 4 07.06.2028 -
Adnan Nainggolan KV Oostende Active 108 / 104 40% 2 07.06.2028 -
Nicolò Brighenti Catanzaro Lost 120 / 102 65% 1 07.06.2028 -
Andrej Kostić AC Milan Active 130 / 135 40% 2 29.05.2028 -
Vincenzo Damiano Atalanta Active 104 / 106 40% 1 29.05.2028 -
Luka Andrade Montevideo City Torque Active 109 / 128 40% 1 29.05.2028 -
Jamal Iddrissou Pergolettese Active 104 / 109 40% 4 27.05.2028 -
Eduard Ihnatov Ospitaletto Active 107 / 114 40% 2 26.05.2028 -
Kaye Furo Reading Active 120 / 129 40% 2 26.05.2028 -
Louis Zecevic-John Colchester United Active 96 / 115 40% 1 26.05.2028 -
Jake Evans Crewe Alexandra Active 106 / 136 40% 4 25.05.2028 -
Riquelme Thompson-Jones Accrington Stanley Active 108 / 116 40% 2 25.05.2028 -
Lamin Sillah Exeter City Active 105 / 117 40% 4 25.05.2028 -
Dmitry Pestryakov Krasnodar Active 112 / 135 40% 1 25.05.2028 -
Joel Ezra Enyimba Active 95 / 121 40% 1 25.05.2028 -
Joshua Ajala Walsall Active 103 / 103 40% 6 23.05.2028 -
Luca Fletcher Ipswich Town Active 111 / 105 40% 4 21.05.2028 -
Christos Mouzakitis Hull City Active 144 / 142 40% 4 21.05.2028 -
Philippe Nguyen Tours Active 109 / 105 40% 3 21.05.2028 -
Tyler Fletcher Rotherham United Active 108 / 107 40% 2 21.05.2028 -
Augusto Bando Ascoli Active 119 / 123 40% 1 21.05.2028 -
Ryan Oné Sheffield United Active 115 / 116 40% 4 20.05.2028 -
Sindre Walle Egeli Udinese Active 137 / 136 40% 8 20.05.2028 -
Alen Vukaj Alcione Milano Active 99 / 109 40% 2 18.05.2028 -
Babis Kostoulas Oxford United Active 135 / 150 40% 2 17.05.2028 -
Ayden Heaven Portsmouth Active 140 / 139 40% 1 17.05.2028 -
Tobiáš Pališčák Zlin Active 107 / 107 40% 1 17.05.2028 -
Alessio Insignito Spezia Active 111 / 117 40% 1 16.05.2028 -
Igor Tyjon Barrow AFC Active 120 / 132 40% 4 15.05.2028 -
Ryan Kavuma-McQueen Accrington Stanley Active 128 / 137 40% 4 15.05.2028 -
Edison Gruezo Guadalajara Active 98 / 91 40% 1 13.05.2028 -
Nicolas Verkooijen PSV Active 105 / 125 40% 1 12.05.2028 -
Luca Williams-Barnett Walsall Active 129 / 138 40% 1 12.05.2028 -
Davide Bono Levante Active 101 / 100 40% 2 11.05.2028 -
Kiani Inge Groningen Active 106 / 123 40% 2 10.05.2028 -
Otto Stange Borussia Mönchengladbach Active 126 / 125 40% 3 10.05.2028 -
Noah Mokhtari Stade Brestois Active 99 / 116 40% 4 10.05.2028 -
Mateus Mané Burnley Active 145 / 160 40% 3 08.05.2028 -
Idrissa Guèye Virtus Entella Active 124 / 113 40% 2 07.05.2028 -
Celías Ingenthron Platense Active 114 / 122 40% 1 06.05.2028 -
Trey Nyoni Rotherham United Active 131 / 158 40% 1 06.05.2028 -
Justin Clarke Everton Active 111 / 121 40% 1 06.05.2028 -
Cristian Carrara Guidonia Montecelio Active 97 / 118 40% 2 05.05.2028 -
Nathan Mbala FC Metz Active 99 / 114 40% 1 04.05.2028 -
Micah Mbick Derby County Active 109 / 111 40% 1 01.05.2028 -
Martim Cunha Porto Active 114 / 106 40% 2 29.04.2028 -
Tobías Ramírez River Plate Active 144 / 131 40% 1 29.04.2028 -
Giovanni Leoni Lincoln City Active 149 / 139 40% 2 27.04.2028 -
Itumeleng Jali Spezia Negotiating 110 / 109 40% 1 26.04.2028 -
Nicolás Azambuja Danubio Active 130 / 134 40% 1 18.04.2028 -
Eli Junior Kroupi Bournemouth Active 144 / 162 40% 3 16.04.2028 -
Martin Sherif Everton Active 114 / 107 40% 2 13.04.2028 -
Andrea Luongo Trento Active 100 / 114 40% 1 12.04.2028 -
Seydou Fini Genoa Active 129 / 142 40% 2 11.04.2028 -
Braiden Graham Everton Active 101 / 104 40% 2 10.04.2028 -
Fletcher Boyd Accrington Stanley Active 94 / 117 40% 1 07.04.2028 -
Josh Nichols Oldham Athletic Active 122 / 119 40% 1 06.04.2028 -
Mateus Mide Porto Active 105 / 121 40% 1 04.04.2028 -
Kylian Kouakou Valenciennes Active 102 / 113 40% 1 03.04.2028 -
Jeff Ekhator Juventus Active 130 / 139 40% 1 03.04.2028 -
Jorthy Mokio ADO Den Haag Active 139 / 126 40% 1 01.04.2028 -
Andrey Ivlev Nizhniy Novgorod Active 115 / 109 40% 1 31.03.2028 -
Teboho Zwane Ajax Cape Town Active 86 / 93 40% 1 26.03.2028 -
Miguel Figueiredo Benfica Active 114 / 137 40% 1 24.03.2028 -
Kevin Filling AIK Active 91 / 115 40% 2 21.03.2028 -
Sidiki Chérif Newcastle United Active 133 / 128 40% 1 21.03.2028 -
Francesco Castaldo Lumezzane Active 105 / 96 40% 1 18.03.2028 -
Lorenzo Venturino Juventus Active 145 / 125 40% 1 17.03.2028 -
Anas Alaoui Lecco Active 103 / 119 40% 1 16.03.2028 -
Nicolas Sport Recife Active 99 / 106 40% 1 12.03.2028 -
Othniël Raterink Cagliari Active 117 / 114 40% 1 12.03.2028 -
Luka Vušković Tottenham Active 148 / 165 40% 1 09.03.2028 -
Daniel Banjaqui Benfica Active 126 / 123 40% 1 09.03.2028 -
Fabian Tait Active 109 / 100 62% 1 10.01.2028 Approve
Matteo Rover Reggiana Active 130 / 109 58% 1 01.01.2027 -
Kazunari Kita Real Sociedad Active 105 / 91 40% 1 23.12.2026 -
Eyad El Askalany Rostov Active 91 / 97 40% 1 14.12.2026 -
Louis Leroux FC Nantes Active 114 / 119 40% 1 09.12.2026 -